Pernille — 5BNZ2 — position and weather

sailwx.info

Track history (hours):
 
Tides and Currents Weather Stations Pressure Air Temp Water Temp Dewpoint Dewpoint Depression Visibility Wind Speed Wind Dir Waves Ship Positions

Pernille

Last reported at 2016-Dec-06 08:33 UTC. Time now 2016-Dec-06 19:52 UTC.
Position N 45°36' W 004°15'.

Length 83 m; draft 5.7 m.

Type: Cargo ship. MMSI: 212662000.

Date/timePositionNaut miles runAvg speedWind from/ knotsBaromVisibWave heightAir tempDewpointWater temp
2016-Dec-06 08:33N 45°36' W 004°15'4711.0
2016-Dec-06 04:18N 46°20' W 004°39'1210.8
2016-Dec-06 03:13N 46°31' W 004°44'5611.0
2016-Dec-05 22:10N 47°23' W 005°13'711.6
2016-Dec-05 21:34N 47°29' W 005°17'1111.5
2016-Dec-05 20:33N 47°40' W 005°24'2110.7
2016-Dec-05 18:33N 48°00' W 005°34'38 9.6
2016-Dec-05 14:33N 48°36' W 005°54'13610.5
2016-Dec-05 01:33N 49°55' W 003°05'1110.5
2016-Dec-05 00:33N 49°59' W 002°50'44 8.7
2016-Dec-04 19:33N 50°13' W 001°45'5612.7
2016-Dec-04 15:09N 50°28' W 000°21'711.8
2016-Dec-04 14:33N 50°30' W 000°10'1110.9
2016-Dec-04 13:32N 50°33' E 000°06'4210.1
2016-Dec-04 09:25N 50°53' E 001°05'1112.6
2016-Dec-04 08:31N 50°60' E 001°19'1212.7
2016-Dec-04 07:33N 51°08' E 001°33'1111.4
2016-Dec-04 06:33N 51°15' E 001°47'1010.3
2016-Dec-04 05:33N 51°24' E 001°56'10 9.6
2016-Dec-04 04:33N 51°31' E 002°05'10 9.3
2016-Dec-04 03:30N 51°39' E 002°16'5611.3
2016-Dec-03 22:32N 52°23' E 003°12'19910.3
2016-Dec-03 03:13N 54°01' E 008°01'910.7
2016-Dec-03 02:24N 54°01' E 008°16'910.9
2016-Dec-03 01:32N 53°58' E 008°31'9 8.5
2016-Dec-03 00:31N 53°53' E 008°43'7 7.5
2016-Dec-02 23:33N 53°51' E 008°54'10 9.5
2016-Dec-02 22:33N 53°53' E 009°10'1111.2
2016-Dec-02 21:33N 53°45' E 009°24'1211.9
2016-Dec-02 20:33N 53°36' E 009°36'1110.8
2016-Dec-02 19:33N 53°33' E 009°53'5 5.2
2016-Dec-02 18:33N 53°28' E 009°58'0 0.0
2016-Dec-02 17:32N 53°28' E 009°58'0 0.0
2016-Dec-02 16:32N 53°28' E 009°58'0 0.0
2016-Dec-02 15:26N 53°28' E 009°58'0 0.0
2016-Dec-02 14:32N 53°28' E 009°58'0 0.0
2016-Dec-02 13:23N 53°28' E 009°58'0 0.0
2016-Dec-02 12:32N 53°28' E 009°58'0 0.0
2016-Dec-02 11:32N 53°28' E 009°58'0 0.0
2016-Dec-02 10:32N 53°28' E 009°58'0 0.0
2016-Dec-02 09:32N 53°28' E 009°58'0 0.0
2016-Dec-02 08:32N 53°28' E 009°58'0 0.1
2016-Dec-02 07:32N 53°28' E 009°59'3 2.9
2016-Dec-02 06:33N 53°31' E 009°57'0 0.0
2016-Dec-02 05:33N 53°31' E 009°57'0 0.0
2016-Dec-02 04:33N 53°31' E 009°57'0 0.0
2016-Dec-02 03:33N 53°31' E 009°57'0 0.0
2016-Dec-02 02:33N 53°31' E 009°57'0 0.0
2016-Dec-02 01:33N 53°31' E 009°57'0 0.0
2016-Dec-02 00:33N 53°31' E 009°57'0 0.0
2016-Dec-01 23:33N 53°31' E 009°57'0 0.0
2016-Dec-01 22:33N 53°31' E 009°57'0 0.3
2016-Dec-01 21:33N 53°31' E 009°56'3 2.8
2016-Dec-01 20:33N 53°33' E 009°52'5 5.1
2016-Dec-01 19:33N 53°34' E 009°44'5 5.1
2016-Dec-01 18:33N 53°36' E 009°36'5 5.2
2016-Dec-01 17:33N 53°40' E 009°31'6 6.0
2016-Dec-01 16:33N 53°45' E 009°25'7 6.6
2016-Dec-01 15:33N 53°51' E 009°20'7 6.8
2016-Dec-01 14:33N 53°53' E 009°09'8 7.5
2016-Dec-01 13:33N 53°51' E 008°57'8 7.8
2016-Dec-01 12:33N 53°52' E 008°43'1111.2
2016-Dec-01 11:32N 53°59' E 008°28'1312.5
2016-Dec-01 10:29N 53°58' E 008°05'7211.7
2016-Dec-01 04:18N 53°41' E 006°06'810.4
2016-Dec-01 03:33N 53°39' E 005°54'1010.4
2016-Dec-01 02:34N 53°35' E 005°37'1010.2
2016-Dec-01 01:33N 53°32' E 005°21'  
2016-Nov-27 09:33N 53°35' E 005°08'1111.3
2016-Nov-27 08:34N 53°39' E 005°25'1010.1
2016-Nov-27 07:34N 53°42' E 005°42'10 9.5
2016-Nov-27 06:34N 53°44' E 005°57'7510.3
2016-Nov-26 23:19N 54°01' E 008°01'810.5
2016-Nov-26 22:32N 54°01' E 008°15'1010.1
2016-Nov-26 21:33N 53°58' E 008°31'8 8.4
2016-Nov-26 20:34N 53°53' E 008°42'8 7.9
2016-Nov-26 19:33N 53°51' E 008°55'9 8.6
2016-Nov-26 18:34N 53°54' E 009°09'0 0.2
2016-Nov-26 17:33N 53°54' E 009°09'7 7.4
2016-Nov-26 16:33N 53°59' E 009°17'4 3.4
2016-Nov-26 15:28N 54°03' E 009°18'13 5.5
2016-Nov-26 13:04N 54°12' E 009°34'4 7.7
2016-Nov-26 12:30N 54°16' E 009°38'8 8.1
2016-Nov-26 11:33N 54°22' E 009°47'6 5.9
2016-Nov-26 10:34N 54°20' E 009°57'6 5.9
2016-Nov-26 09:32N 54°22' E 010°07'  
Track history (hours):
 
Tides and Currents Weather Stations Pressure Air Temp Water Temp Dewpoint Dewpoint Depression Visibility Wind Speed Wind Dir Waves Ship Positions

Pernille

Last reported at 2016-Dec-06 08:33 UTC. Time now 2016-Dec-06 19:52 UTC.
Position N 45°36' W 004°15'.

Length 83 m; draft 5.7 m.

Type: Cargo ship. MMSI: 212662000.

Date/timePositionNaut miles runAvg speedWind from/ knotsBaromVisibWave heightAir tempDewpointWater temp
2016-Dec-06 08:33N 45°36' W 004°15'4711.0
2016-Dec-06 04:18N 46°20' W 004°39'1210.8
2016-Dec-06 03:13N 46°31' W 004°44'5611.0
2016-Dec-05 22:10N 47°23' W 005°13'711.6
2016-Dec-05 21:34N 47°29' W 005°17'1111.5
2016-Dec-05 20:33N 47°40' W 005°24'2110.7
2016-Dec-05 18:33N 48°00' W 005°34'38 9.6
2016-Dec-05 14:33N 48°36' W 005°54'13610.5
2016-Dec-05 01:33N 49°55' W 003°05'1110.5
2016-Dec-05 00:33N 49°59' W 002°50'44 8.7
2016-Dec-04 19:33N 50°13' W 001°45'5612.7
2016-Dec-04 15:09N 50°28' W 000°21'711.8
2016-Dec-04 14:33N 50°30' W 000°10'1110.9
2016-Dec-04 13:32N 50°33' E 000°06'4210.1
2016-Dec-04 09:25N 50°53' E 001°05'1112.6
2016-Dec-04 08:31N 50°60' E 001°19'1212.7
2016-Dec-04 07:33N 51°08' E 001°33'1111.4
2016-Dec-04 06:33N 51°15' E 001°47'1010.3
2016-Dec-04 05:33N 51°24' E 001°56'10 9.6
2016-Dec-04 04:33N 51°31' E 002°05'10 9.3
2016-Dec-04 03:30N 51°39' E 002°16'5611.3
2016-Dec-03 22:32N 52°23' E 003°12'19910.3
2016-Dec-03 03:13N 54°01' E 008°01'910.7
2016-Dec-03 02:24N 54°01' E 008°16'910.9
2016-Dec-03 01:32N 53°58' E 008°31'9 8.5
2016-Dec-03 00:31N 53°53' E 008°43'7 7.5
2016-Dec-02 23:33N 53°51' E 008°54'10 9.5
2016-Dec-02 22:33N 53°53' E 009°10'1111.2
2016-Dec-02 21:33N 53°45' E 009°24'1211.9
2016-Dec-02 20:33N 53°36' E 009°36'1110.8
2016-Dec-02 19:33N 53°33' E 009°53'5 5.2
2016-Dec-02 18:33N 53°28' E 009°58'0 0.0
2016-Dec-02 17:32N 53°28' E 009°58'0 0.0
2016-Dec-02 16:32N 53°28' E 009°58'0 0.0
2016-Dec-02 15:26N 53°28' E 009°58'0 0.0
2016-Dec-02 14:32N 53°28' E 009°58'0 0.0
2016-Dec-02 13:23N 53°28' E 009°58'0 0.0
2016-Dec-02 12:32N 53°28' E 009°58'0 0.0
2016-Dec-02 11:32N 53°28' E 009°58'0 0.0
2016-Dec-02 10:32N 53°28' E 009°58'0 0.0
2016-Dec-02 09:32N 53°28' E 009°58'0 0.0
2016-Dec-02 08:32N 53°28' E 009°58'0 0.1
2016-Dec-02 07:32N 53°28' E 009°59'3 2.9
2016-Dec-02 06:33N 53°31' E 009°57'0 0.0
2016-Dec-02 05:33N 53°31' E 009°57'0 0.0
2016-Dec-02 04:33N 53°31' E 009°57'0 0.0
2016-Dec-02 03:33N 53°31' E 009°57'0 0.0
2016-Dec-02 02:33N 53°31' E 009°57'0 0.0
2016-Dec-02 01:33N 53°31' E 009°57'0 0.0
2016-Dec-02 00:33N 53°31' E 009°57'0 0.0
2016-Dec-01 23:33N 53°31' E 009°57'0 0.0
2016-Dec-01 22:33N 53°31' E 009°57'0 0.3
2016-Dec-01 21:33N 53°31' E 009°56'3 2.8
2016-Dec-01 20:33N 53°33' E 009°52'5 5.1
2016-Dec-01 19:33N 53°34' E 009°44'5 5.1
2016-Dec-01 18:33N 53°36' E 009°36'5 5.2
2016-Dec-01 17:33N 53°40' E 009°31'6 6.0
2016-Dec-01 16:33N 53°45' E 009°25'7 6.6
2016-Dec-01 15:33N 53°51' E 009°20'7 6.8
2016-Dec-01 14:33N 53°53' E 009°09'8 7.5
2016-Dec-01 13:33N 53°51' E 008°57'8 7.8
2016-Dec-01 12:33N 53°52' E 008°43'1111.2
2016-Dec-01 11:32N 53°59' E 008°28'1312.5
2016-Dec-01 10:29N 53°58' E 008°05'7211.7
2016-Dec-01 04:18N 53°41' E 006°06'810.4
2016-Dec-01 03:33N 53°39' E 005°54'1010.4
2016-Dec-01 02:34N 53°35' E 005°37'1010.2
2016-Dec-01 01:33N 53°32' E 005°21'  
2016-Nov-27 09:33N 53°35' E 005°08'1111.3
2016-Nov-27 08:34N 53°39' E 005°25'1010.1
2016-Nov-27 07:34N 53°42' E 005°42'10 9.5
2016-Nov-27 06:34N 53°44' E 005°57'7510.3
2016-Nov-26 23:19N 54°01' E 008°01'810.5
2016-Nov-26 22:32N 54°01' E 008°15'1010.1
2016-Nov-26 21:33N 53°58' E 008°31'8 8.4
2016-Nov-26 20:34N 53°53' E 008°42'8 7.9
2016-Nov-26 19:33N 53°51' E 008°55'9 8.6
2016-Nov-26 18:34N 53°54' E 009°09'0 0.2
2016-Nov-26 17:33N 53°54' E 009°09'7 7.4
2016-Nov-26 16:33N 53°59' E 009°17'4 3.4
2016-Nov-26 15:28N 54°03' E 009°18'13 5.5
2016-Nov-26 13:04N 54°12' E 009°34'4 7.7
2016-Nov-26 12:30N 54°16' E 009°38'8 8.1
2016-Nov-26 11:33N 54°22' E 009°47'6 5.9
2016-Nov-26 10:34N 54°20' E 009°57'6 5.9
2016-Nov-26 09:32N 54°22' E 010°07'  

Dump ship's entire track history